createdAt,value
2023-03-26T00:02:23.506Z,74.60
2023-03-26T00:04:51.197Z,74.60
2023-03-26T00:07:18.358Z,74.70
2023-03-26T00:09:45.242Z,74.60
2023-03-26T00:12:13.368Z,74.60
2023-03-26T00:14:40.941Z,74.60
2023-03-26T00:17:08.754Z,74.60
2023-03-26T00:19:35.855Z,74.70
2023-03-26T00:22:04.066Z,74.70
2023-03-26T00:24:30.961Z,74.60
2023-03-26T00:26:58.082Z,74.60
2023-03-26T00:29:28.379Z,74.60
2023-03-26T00:31:54.972Z,74.60
2023-03-26T00:34:23.107Z,74.60
2023-03-26T00:36:54.403Z,74.60
2023-03-26T00:39:24.026Z,74.60
2023-03-26T00:41:54.855Z,74.60
2023-03-26T00:44:22.193Z,75.20
2023-03-26T00:46:48.859Z,74.60
2023-03-26T00:49:15.531Z,74.70
2023-03-26T00:51:43.394Z,74.80
2023-03-26T00:54:11.425Z,74.70
2023-03-26T00:56:40.946Z,74.80
2023-03-26T00:59:11.445Z,74.80
2023-03-26T01:01:38.271Z,74.80
2023-03-26T01:04:27.922Z,74.80
2023-03-26T01:06:55.734Z,74.90
2023-03-26T01:09:24.204Z,74.90
2023-03-26T01:11:52.730Z,75.00
2023-03-26T01:14:23.562Z,75.00
2023-03-26T01:16:52.626Z,75.00
2023-03-26T01:19:30.138Z,75.10
2023-03-26T01:21:59.214Z,75.10
2023-03-26T01:24:26.316Z,75.20
2023-03-26T01:26:54.051Z,75.20
2023-03-26T01:29:50.572Z,75.30
2023-03-26T01:32:35.367Z,75.30
2023-03-26T01:35:12.463Z,75.30
2023-03-26T01:38:01.161Z,75.40
2023-03-26T01:40:27.970Z,75.40
2023-03-26T01:43:06.592Z,75.40
2023-03-26T01:45:37.081Z,75.40
2023-03-26T01:48:04.625Z,75.30
2023-03-26T01:50:31.554Z,75.30
2023-03-26T01:52:58.554Z,75.30
2023-03-26T01:55:37.326Z,75.30
2023-03-26T01:58:17.083Z,75.30
2023-03-26T02:01:04.290Z,75.30
2023-03-26T02:03:42.517Z,75.40
2023-03-26T02:06:47.908Z,75.40
2023-03-26T02:09:17.708Z,75.30
2023-03-26T02:11:45.003Z,75.40
2023-03-26T02:14:13.798Z,75.40
2023-03-26T02:16:41.272Z,75.40
2023-03-26T02:19:15.553Z,75.40
2023-03-26T02:21:42.367Z,75.40
2023-03-26T02:24:09.490Z,75.40
2023-03-26T02:26:37.837Z,75.40
2023-03-26T02:29:04.886Z,75.30
2023-03-26T02:31:32.065Z,75.30
2023-03-26T02:33:58.984Z,75.30
2023-03-26T02:36:27.968Z,75.30
2023-03-26T02:38:55.590Z,75.30
2023-03-26T02:41:22.544Z,75.30
2023-03-26T02:43:49.747Z,75.40
2023-03-26T02:46:16.840Z,75.40
2023-03-26T02:48:44.135Z,75.50
2023-03-26T02:51:10.928Z,75.50
2023-03-26T02:53:39.649Z,75.40
2023-03-26T02:56:06.972Z,75.50
2023-03-26T02:58:34.017Z,76.00
2023-03-26T03:01:03.330Z,75.50
2023-03-26T03:03:30.254Z,75.50
2023-03-26T03:05:57.455Z,75.50
2023-03-26T03:08:26.655Z,75.60
2023-03-26T03:11:12.958Z,75.60
2023-03-26T03:13:42.263Z,75.50
2023-03-26T03:16:09.622Z,75.60
2023-03-26T03:18:36.920Z,75.60
2023-03-26T03:21:04.485Z,75.50
2023-03-26T03:23:31.539Z,75.60
2023-03-26T03:25:58.741Z,75.50
2023-03-26T03:28:26.780Z,75.60
2023-03-26T03:30:53.990Z,75.60
2023-03-26T03:33:21.608Z,75.60
2023-03-26T03:35:49.729Z,75.60
2023-03-26T03:38:17.614Z,75.70
2023-03-26T03:40:44.353Z,75.70
2023-03-26T03:43:11.399Z,75.60
2023-03-26T03:45:38.133Z,75.60
2023-03-26T03:48:06.098Z,75.60
2023-03-26T03:50:35.464Z,75.50
2023-03-26T03:53:03.234Z,75.50
2023-03-26T03:55:30.317Z,75.50
2023-03-26T03:57:58.502Z,75.50
2023-03-26T04:00:25.755Z,75.50
2023-03-26T04:02:57.014Z,75.50
2023-03-26T04:05:23.742Z,75.40
2023-03-26T04:07:50.963Z,75.50
2023-03-26T04:10:19.317Z,75.50
2023-03-26T04:12:46.202Z,75.40
2023-03-26T04:15:13.268Z,75.40
2023-03-26T04:17:43.065Z,75.40
2023-03-26T04:20:14.877Z,75.60
2023-03-26T04:22:43.314Z,75.40
2023-03-26T04:25:11.248Z,75.40
2023-03-26T04:27:38.818Z,75.40
2023-03-26T04:30:06.886Z,75.40
2023-03-26T04:32:34.509Z,75.40
2023-03-26T04:35:04.838Z,75.40
2023-03-26T04:37:39.690Z,75.40
2023-03-26T04:40:13.648Z,75.40
2023-03-26T04:42:46.339Z,75.40
2023-03-26T04:45:14.460Z,75.40
2023-03-26T04:47:43.688Z,75.90
2023-03-26T04:50:11.326Z,75.40
2023-03-26T04:52:38.774Z,75.40
2023-03-26T04:55:16.974Z,75.30
2023-03-26T04:57:46.369Z,75.30
2023-03-26T05:00:19.645Z,75.40
2023-03-26T05:02:50.302Z,75.30
2023-03-26T05:05:17.537Z,75.30
2023-03-26T05:07:45.331Z,75.30
2023-03-26T05:10:16.052Z,75.30
2023-03-26T05:12:43.206Z,75.30
2023-03-26T05:15:11.617Z,75.30
2023-03-26T05:17:42.059Z,75.30
2023-03-26T05:20:30.245Z,75.30
2023-03-26T05:22:57.193Z,75.30
2023-03-26T05:25:23.785Z,75.30
2023-03-26T05:27:51.840Z,75.30
2023-03-26T05:30:20.939Z,75.20
2023-03-26T05:32:49.168Z,75.30
2023-03-26T05:35:17.514Z,75.30
2023-03-26T05:37:45.571Z,75.20
2023-03-26T05:40:14.863Z,75.30
2023-03-26T05:42:42.025Z,75.30
2023-03-26T05:45:09.827Z,75.30
2023-03-26T05:47:37.165Z,75.30
2023-03-26T05:50:05.316Z,75.30
2023-03-26T05:52:33.427Z,75.30
2023-03-26T05:55:00.343Z,75.30
2023-03-26T05:57:29.416Z,75.30
2023-03-26T05:59:57.334Z,75.30
2023-03-26T06:02:24.202Z,75.30
2023-03-26T06:04:51.179Z,75.30
2023-03-26T06:07:19.844Z,75.30
2023-03-26T06:09:49.009Z,75.30
2023-03-26T06:12:15.753Z,75.20
2023-03-26T06:14:45.880Z,75.30
2023-03-26T06:17:12.659Z,75.30
2023-03-26T06:19:39.440Z,75.30
2023-03-26T06:22:06.190Z,75.30
2023-03-26T06:24:33.381Z,75.20
2023-03-26T06:27:00.386Z,75.20
2023-03-26T06:29:29.760Z,75.20
2023-03-26T06:32:01.441Z,75.20
2023-03-26T06:34:33.061Z,75.20
2023-03-26T06:37:00.111Z,75.20
2023-03-26T06:39:26.890Z,75.20
2023-03-26T06:41:53.787Z,75.20
2023-03-26T06:44:21.088Z,75.20
2023-03-26T06:46:50.379Z,75.20
2023-03-26T06:49:17.157Z,75.20
2023-03-26T06:51:44.181Z,75.20
2023-03-26T06:54:10.974Z,75.30
2023-03-26T06:56:37.784Z,75.20
2023-03-26T06:59:05.765Z,75.20
2023-03-26T07:01:33.695Z,75.20
2023-03-26T07:04:01.995Z,75.30
2023-03-26T07:06:31.372Z,75.20
2023-03-26T07:08:58.386Z,75.20
2023-03-26T07:11:27.280Z,75.80
2023-03-26T07:13:56.335Z,75.30
2023-03-26T07:16:23.221Z,75.30
2023-03-26T07:18:50.035Z,75.30
2023-03-26T07:21:17.171Z,75.40
2023-03-26T07:23:44.457Z,75.30
2023-03-26T07:26:25.426Z,75.30
2023-03-26T07:29:04.822Z,75.40
2023-03-26T07:31:36.331Z,75.30
2023-03-26T07:34:19.239Z,75.40
2023-03-26T07:36:52.092Z,75.40
2023-03-26T07:39:28.120Z,75.40
2023-03-26T07:42:13.782Z,75.40
2023-03-26T07:44:40.681Z,75.40
2023-03-26T07:47:31.589Z,75.60
2023-03-26T07:49:59.121Z,75.50
2023-03-26T07:52:26.741Z,75.50
2023-03-26T07:54:53.623Z,75.60
2023-03-26T07:57:23.418Z,75.60
2023-03-26T07:59:57.556Z,75.60
2023-03-26T08:02:24.174Z,75.50
2023-03-26T08:05:19.822Z,75.50
2023-03-26T08:08:05.738Z,75.60
2023-03-26T08:10:44.762Z,75.60
2023-03-26T08:13:27.079Z,75.60
2023-03-26T08:16:12.614Z,75.60
2023-03-26T08:18:41.506Z,75.60
2023-03-26T08:21:21.199Z,75.60
2023-03-26T08:23:52.088Z,75.60
2023-03-26T08:26:18.678Z,75.70
2023-03-26T08:29:04.449Z,75.70
2023-03-26T08:31:36.093Z,75.60
2023-03-26T08:34:02.908Z,75.70
2023-03-26T08:36:29.953Z,75.70
2023-03-26T08:38:57.678Z,75.70
2023-03-26T08:41:25.477Z,75.60
2023-03-26T08:43:57.008Z,75.60
2023-03-26T08:46:43.195Z,75.60
2023-03-26T08:49:18.920Z,75.60
2023-03-26T08:52:10.139Z,75.60
2023-03-26T08:54:36.936Z,75.60
2023-03-26T08:57:20.995Z,75.60
2023-03-26T09:00:01.417Z,75.60
2023-03-26T09:02:32.181Z,75.70
2023-03-26T09:05:07.724Z,75.60
2023-03-26T09:07:38.258Z,75.60
2023-03-26T09:10:16.363Z,75.60
2023-03-26T09:12:46.175Z,75.60
2023-03-26T09:15:34.640Z,75.60
2023-03-26T09:18:19.955Z,75.60
2023-03-26T09:21:05.376Z,75.60
2023-03-26T09:23:52.563Z,75.70
2023-03-26T09:26:25.563Z,75.70
2023-03-26T09:28:57.959Z,75.60
2023-03-26T09:31:24.629Z,75.60
2023-03-26T09:33:52.595Z,75.60
2023-03-26T09:36:22.347Z,75.50
2023-03-26T09:38:54.857Z,75.50
2023-03-26T09:41:40.441Z,75.50
2023-03-26T09:44:22.605Z,75.50
2023-03-26T09:46:52.530Z,75.40
2023-03-26T09:49:21.585Z,75.40
2023-03-26T09:51:48.551Z,75.40
2023-03-26T09:54:39.457Z,75.30
2023-03-26T09:57:21.236Z,75.20
2023-03-26T09:59:54.128Z,75.20
2023-03-26T10:02:45.911Z,75.30
2023-03-26T10:05:28.000Z,75.30
2023-03-26T10:08:14.629Z,75.20
2023-03-26T10:10:47.362Z,75.20
2023-03-26T10:13:23.512Z,75.20
2023-03-26T10:15:57.669Z,75.20
2023-03-26T10:18:27.784Z,75.20
2023-03-26T10:21:03.824Z,75.00
2023-03-26T10:23:51.132Z,75.00
2023-03-26T10:26:17.755Z,75.10
2023-03-26T10:29:07.316Z,75.10
2023-03-26T10:31:34.333Z,75.10
2023-03-26T10:34:28.078Z,75.00
2023-03-26T10:37:16.308Z,74.80
2023-03-26T10:40:10.238Z,74.90
2023-03-26T10:42:56.163Z,74.80
2023-03-26T10:45:32.236Z,74.80
2023-03-26T10:48:05.150Z,74.80
2023-03-26T10:50:52.388Z,74.80
2023-03-26T10:53:22.219Z,74.80
2023-03-26T10:55:53.600Z,74.70
2023-03-26T10:58:23.429Z,74.80
2023-03-26T11:00:54.293Z,74.70
2023-03-26T11:03:31.501Z,74.70
2023-03-26T11:05:58.416Z,74.70
2023-03-26T11:08:45.941Z,74.70
2023-03-26T11:11:28.207Z,74.60
2023-03-26T11:14:05.339Z,74.60
2023-03-26T11:16:36.131Z,74.50
2023-03-26T11:19:06.164Z,74.50
2023-03-26T11:21:32.859Z,74.20
2023-03-26T11:24:07.617Z,74.30
2023-03-26T11:26:56.142Z,74.20
2023-03-26T11:29:42.058Z,74.20
2023-03-26T11:32:13.813Z,74.20
2023-03-26T11:34:42.968Z,74.10
2023-03-26T11:37:18.707Z,74.10
2023-03-26T11:39:56.329Z,74.00
2023-03-26T11:42:24.759Z,73.90
2023-03-26T11:44:56.102Z,73.80
2023-03-26T11:47:49.376Z,73.90
2023-03-26T11:50:18.719Z,73.80
2023-03-26T11:52:47.224Z,73.90
2023-03-26T11:55:14.228Z,73.70
2023-03-26T11:57:43.229Z,73.80
2023-03-26T12:00:17.642Z,73.70
2023-03-26T12:02:48.038Z,73.60
2023-03-26T12:05:26.327Z,73.50
2023-03-26T12:07:57.451Z,73.50
2023-03-26T12:10:38.908Z,73.40
2023-03-26T12:13:23.724Z,73.30
2023-03-26T12:15:50.660Z,73.40
2023-03-26T12:18:25.087Z,73.30
2023-03-26T12:21:18.384Z,73.40
2023-03-26T12:23:58.061Z,73.40
2023-03-26T12:26:45.767Z,73.40
2023-03-26T12:29:13.893Z,73.40
2023-03-26T12:31:42.723Z,73.50
2023-03-26T12:34:18.740Z,73.60
2023-03-26T12:36:49.544Z,73.70
2023-03-26T12:40:07.794Z,73.70
2023-03-26T12:44:55.980Z,73.80
2023-03-26T12:45:32.124Z,73.90
2023-03-26T12:48:03.544Z,74.10
2023-03-26T12:50:42.730Z,74.10
2023-03-26T12:53:21.377Z,74.40
2023-03-26T12:55:54.534Z,74.60
2023-03-26T12:58:38.327Z,74.40
2023-03-26T13:01:08.770Z,74.30
2023-03-26T13:03:44.796Z,74.10
2023-03-26T13:06:17.275Z,73.90
2023-03-26T13:09:01.458Z,73.90
2023-03-26T13:11:28.677Z,73.70
2023-03-26T13:14:03.046Z,73.50
2023-03-26T13:16:34.472Z,73.20
2023-03-26T13:19:01.349Z,73.00
2023-03-26T13:21:28.641Z,72.80
2023-03-26T13:24:04.345Z,72.40
2023-03-26T13:26:37.071Z,71.70
2023-03-26T13:29:12.575Z,71.40
2023-03-26T13:31:42.024Z,71.40
2023-03-26T13:34:27.807Z,71.50
2023-03-26T13:37:07.036Z,71.20
2023-03-26T13:39:37.116Z,70.90
2023-03-26T13:42:07.282Z,68.70
2023-03-26T13:44:41.197Z,69.80
2023-03-26T13:47:13.357Z,69.80
2023-03-26T13:49:41.943Z,69.70
2023-03-26T13:52:12.884Z,69.20
2023-03-26T13:54:55.048Z,68.20
2023-03-26T13:57:29.674Z,67.80
2023-03-26T14:00:16.523Z,68.00
2023-03-26T14:02:44.383Z,67.00
2023-03-26T14:05:25.747Z,67.50
2023-03-26T14:07:58.672Z,66.30
2023-03-26T14:10:28.574Z,66.40
2023-03-26T14:12:55.157Z,66.60
2023-03-26T14:15:34.701Z,66.30
2023-03-26T14:18:19.527Z,65.40
2023-03-26T14:21:09.505Z,66.10
2023-03-26T14:24:02.563Z,65.20
2023-03-26T14:26:48.138Z,66.00
2023-03-26T14:29:29.775Z,65.80
2023-03-26T14:32:14.708Z,65.50
2023-03-26T14:34:51.221Z,63.10
2023-03-26T14:37:29.916Z,62.40
2023-03-26T14:40:26.108Z,63.40
2023-03-26T14:43:11.495Z,63.10
2023-03-26T14:45:38.232Z,63.30
2023-03-26T14:48:26.774Z,63.80
2023-03-26T14:50:54.761Z,63.70
2023-03-26T14:53:42.542Z,63.30
2023-03-26T14:56:09.256Z,63.00
2023-03-26T14:58:55.527Z,62.80
2023-03-26T15:01:25.440Z,62.30
2023-03-26T15:04:03.659Z,61.90
2023-03-26T15:06:33.516Z,61.80
2023-03-26T15:09:03.634Z,62.30
2023-03-26T15:11:49.288Z,61.70
2023-03-26T15:14:34.800Z,61.90
2023-03-26T15:17:04.577Z,61.40
2023-03-26T15:19:42.932Z,61.60
2023-03-26T15:22:15.755Z,61.70
2023-03-26T15:24:42.435Z,62.20
2023-03-26T15:27:18.978Z,62.20
2023-03-26T15:30:04.705Z,61.70
2023-03-26T15:32:52.774Z,61.90
2023-03-26T15:35:34.288Z,60.60
2023-03-26T15:38:13.507Z,61.20
2023-03-26T15:40:58.788Z,59.90
2023-03-26T15:43:28.544Z,59.20
2023-03-26T15:46:10.428Z,60.20
2023-03-26T15:48:37.883Z,60.20
2023-03-26T15:51:07.659Z,59.60
2023-03-26T15:53:50.019Z,59.40
2023-03-26T15:56:40.594Z,59.60
2023-03-26T15:59:16.546Z,59.20
2023-03-26T16:02:07.710Z,58.50
2023-03-26T16:04:34.681Z,59.10
2023-03-26T16:07:29.221Z,58.40
2023-03-26T16:10:16.062Z,58.60
2023-03-26T16:12:48.883Z,58.50
2023-03-26T16:15:23.170Z,58.50
2023-03-26T16:18:09.842Z,58.60
2023-03-26T16:20:51.189Z,58.20
2023-03-26T16:23:27.113Z,58.70
2023-03-26T16:26:05.955Z,58.80
2023-03-26T16:28:34.388Z,57.70
2023-03-26T16:31:36.718Z,57.70
2023-03-26T16:34:08.106Z,58.10
2023-03-26T16:36:39.098Z,56.90
2023-03-26T16:39:05.930Z,56.70
2023-03-26T16:41:35.758Z,57.20
2023-03-26T16:44:04.547Z,57.20
2023-03-26T16:46:31.256Z,56.80
2023-03-26T16:49:09.584Z,55.90
2023-03-26T16:51:39.868Z,56.20
2023-03-26T16:54:19.005Z,56.70
2023-03-26T16:57:09.493Z,56.50
2023-03-26T16:59:58.344Z,56.60
2023-03-26T17:02:37.087Z,56.10
2023-03-26T17:05:17.807Z,56.50
2023-03-26T17:08:00.459Z,55.60
2023-03-26T17:10:52.672Z,55.70
2023-03-26T17:13:24.647Z,55.40
2023-03-26T17:15:51.407Z,55.30
2023-03-26T17:18:18.354Z,55.60
2023-03-26T17:21:03.480Z,55.00
2023-03-26T17:23:38.399Z,54.50
2023-03-26T17:26:12.254Z,54.70
2023-03-26T17:28:52.258Z,55.00
2023-03-26T17:31:42.717Z,55.00
2023-03-26T17:34:28.360Z,55.10
2023-03-26T17:36:56.319Z,55.10
2023-03-26T17:39:43.458Z,55.00
2023-03-26T17:42:13.695Z,54.90
2023-03-26T17:44:42.305Z,55.00
2023-03-26T17:47:24.200Z,55.00
2023-03-26T17:49:53.852Z,55.10
2023-03-26T17:52:33.840Z,55.20
2023-03-26T17:55:01.773Z,55.10
2023-03-26T17:57:40.311Z,55.30
2023-03-26T18:00:09.319Z,55.10
2023-03-26T18:02:42.645Z,54.20
2023-03-26T18:05:13.298Z,54.60
2023-03-26T18:07:59.024Z,54.60
2023-03-26T18:10:33.419Z,54.80
2023-03-26T18:13:12.644Z,54.90
2023-03-26T18:16:05.008Z,54.60
2023-03-26T18:18:41.109Z,54.40
2023-03-26T18:21:07.936Z,54.80
2023-03-26T18:23:38.937Z,54.70
2023-03-26T18:26:28.655Z,54.50
2023-03-26T18:29:10.854Z,54.30
2023-03-26T18:31:40.829Z,54.20
2023-03-26T18:34:13.190Z,54.60
2023-03-26T18:36:39.984Z,54.60
2023-03-26T18:39:11.733Z,54.80
2023-03-26T18:41:41.748Z,54.80
2023-03-26T18:44:15.667Z,55.10
2023-03-26T18:46:42.881Z,55.00
2023-03-26T18:49:13.401Z,55.20
2023-03-26T18:51:54.039Z,54.90
2023-03-26T18:54:23.517Z,55.10
2023-03-26T18:56:52.225Z,55.10
2023-03-26T18:59:19.856Z,55.20
2023-03-26T19:01:47.700Z,55.40
2023-03-26T19:04:16.280Z,55.50
2023-03-26T19:06:43.774Z,55.40
2023-03-26T19:09:28.200Z,55.40
2023-03-26T19:12:02.136Z,55.20
2023-03-26T19:14:29.030Z,55.40
2023-03-26T19:16:58.293Z,55.20
2023-03-26T19:19:32.816Z,55.30
2023-03-26T19:21:59.902Z,55.30
2023-03-26T19:24:27.534Z,55.60
2023-03-26T19:26:54.326Z,55.70
2023-03-26T19:29:27.220Z,56.00
2023-03-26T19:32:00.790Z,56.10
2023-03-26T19:34:39.969Z,56.20
2023-03-26T19:37:18.485Z,56.40
2023-03-26T19:39:47.152Z,56.60
2023-03-26T19:42:15.051Z,56.60
2023-03-26T19:44:43.569Z,56.70
2023-03-26T19:47:24.936Z,56.70
2023-03-26T19:50:02.060Z,56.70
2023-03-26T19:52:32.726Z,56.80
2023-03-26T19:55:02.925Z,56.80
2023-03-26T19:57:30.820Z,56.90
2023-03-26T19:59:58.495Z,57.00
2023-03-26T20:02:26.155Z,57.00
2023-03-26T20:04:53.031Z,57.10
2023-03-26T20:07:22.284Z,57.10
2023-03-26T20:10:03.122Z,57.10
2023-03-26T20:12:29.853Z,57.00
2023-03-26T20:14:57.053Z,57.10
2023-03-26T20:17:24.028Z,57.20
2023-03-26T20:19:51.395Z,57.20
2023-03-26T20:22:20.858Z,57.40
2023-03-26T20:24:47.850Z,57.30
2023-03-26T20:27:15.161Z,57.40
2023-03-26T20:29:42.320Z,57.50
2023-03-26T20:32:23.646Z,57.40
2023-03-26T20:34:52.060Z,57.40
2023-03-26T20:37:18.923Z,57.30
2023-03-26T20:39:46.051Z,57.40
2023-03-26T20:42:15.804Z,57.50
2023-03-26T20:44:42.837Z,57.50
2023-03-26T20:47:10.707Z,57.40
2023-03-26T20:49:37.516Z,57.50
2023-03-26T20:52:04.434Z,57.50
2023-03-26T20:54:31.422Z,57.60
2023-03-26T20:56:58.657Z,57.70
2023-03-26T20:59:27.598Z,57.70
2023-03-26T21:01:57.178Z,57.80
2023-03-26T21:04:26.778Z,57.80
2023-03-26T21:07:00.407Z,57.80
2023-03-26T21:09:34.158Z,57.90
2023-03-26T21:12:20.172Z,57.70
2023-03-26T21:14:47.629Z,57.80
2023-03-26T21:17:16.351Z,57.90
2023-03-26T21:19:43.689Z,58.00
2023-03-26T21:22:21.007Z,58.00
2023-03-26T21:24:51.102Z,58.00
2023-03-26T21:27:37.323Z,58.10
2023-03-26T21:30:06.843Z,58.10
2023-03-26T21:32:34.049Z,58.20
2023-03-26T21:35:01.074Z,58.20
2023-03-26T21:37:28.221Z,58.10
2023-03-26T21:39:55.071Z,58.30
2023-03-26T21:42:22.120Z,58.30
2023-03-26T21:44:49.223Z,58.30
2023-03-26T21:47:16.215Z,58.30
2023-03-26T21:49:43.306Z,58.40
2023-03-26T21:52:15.113Z,58.50
2023-03-26T21:54:43.270Z,58.60
2023-03-26T21:57:14.345Z,58.60
2023-03-26T21:59:43.940Z,58.70
2023-03-26T22:02:17.372Z,58.80
2023-03-26T22:04:44.141Z,58.80
2023-03-26T22:07:16.035Z,58.80
2023-03-26T22:09:43.855Z,58.90
2023-03-26T22:12:11.105Z,59.10
2023-03-26T22:14:38.214Z,59.20
2023-03-26T22:17:05.972Z,59.30
2023-03-26T22:19:34.637Z,59.40
2023-03-26T22:22:01.805Z,59.60
2023-03-26T22:24:29.014Z,59.60
2023-03-26T22:26:56.108Z,59.70
2023-03-26T22:29:22.850Z,59.80
2023-03-26T22:31:49.631Z,59.90
2023-03-26T22:34:16.706Z,60.00
2023-03-26T22:36:43.587Z,60.00
2023-03-26T22:39:11.045Z,60.10
2023-03-26T22:41:37.978Z,60.10
2023-03-26T22:44:16.762Z,60.20
2023-03-26T22:46:48.965Z,60.20
2023-03-26T22:49:16.309Z,60.30
2023-03-26T22:51:46.076Z,60.40
2023-03-26T22:54:13.503Z,60.40
2023-03-26T22:56:42.026Z,60.50
2023-03-26T22:59:08.823Z,60.60
2023-03-26T23:01:36.167Z,60.60
2023-03-26T23:04:05.356Z,60.70
2023-03-26T23:06:32.215Z,60.70
2023-03-26T23:09:00.183Z,60.80
2023-03-26T23:11:29.583Z,60.80
2023-03-26T23:13:56.491Z,60.90
2023-03-26T23:16:23.465Z,60.90
2023-03-26T23:18:51.862Z,61.00
2023-03-26T23:21:19.931Z,61.00
2023-03-26T23:23:47.259Z,61.10
2023-03-26T23:26:14.890Z,61.10
2023-03-26T23:28:42.220Z,61.20
2023-03-26T23:31:09.955Z,61.20
2023-03-26T23:33:37.882Z,61.30
2023-03-26T23:36:08.922Z,61.30
2023-03-26T23:38:43.024Z,61.40
2023-03-26T23:41:14.980Z,61.50
2023-03-26T23:43:54.763Z,61.60
2023-03-26T23:46:23.993Z,61.60
2023-03-26T23:48:53.014Z,61.70
2023-03-26T23:51:20.347Z,61.90
2023-03-26T23:53:47.609Z,62.10
2023-03-26T23:56:15.398Z,62.00
2023-03-26T23:58:42.307Z,62.10
